Time;durP1;ratioP1;P1;durP2;ratioP2;P2;SDS_P1;SDS_P2;PMS_P1;PMS_P2;Temp;Humidity;BMP_temperature;BMP_pressure;BME280_temperature;BME280_humidity;BME280_pressure;Samples;Min_cycle;Max_cycle;Signal;HPM_P1;HPM_P2
2023/05/04 00:01:32;;;;;;;4.80;4.40;;;;;;;10.73;97.51;100729.97;5039645;28;20687;-76
2023/05/04 00:03:57;;;;;;;4.67;4.27;;;;;;;10.67;97.26;100723.09;5038448;28;20172;-76
2023/05/04 00:06:22;;;;;;;4.73;4.33;;;;;;;10.66;96.31;100719.63;5021364;28;20191;-74
2023/05/04 00:08:48;;;;;;;5.10;4.70;;;;;;;10.65;96.04;100714.47;5035437;28;20266;-77
2023/05/04 00:11:13;;;;;;;5.13;4.73;;;;;;;10.68;95.19;100712.72;5033843;28;20184;-77
2023/05/04 00:13:38;;;;;;;4.67;4.30;;;;;;;10.69;95.40;100716.19;5033867;28;20210;-77
2023/05/04 00:16:04;;;;;;;5.43;4.27;;;;;;;10.66;95.47;100719.63;5026883;28;20239;-76
2023/05/04 00:18:29;;;;;;;5.10;4.23;;;;;;;10.71;94.80;100713.56;5033845;28;20185;-77
2023/05/04 00:20:55;;;;;;;7.13;5.00;;;;;;;10.74;95.19;100705.81;5020172;28;20180;-77
2023/05/04 00:23:20;;;;;;;4.63;4.23;;;;;;;10.72;95.18;100705.81;5037841;28;20230;-77
2023/05/04 00:25:45;;;;;;;5.20;4.60;;;;;;;10.72;95.38;100702.34;5035918;28;20187;-77
2023/05/04 00:28:11;;;;;;;5.43;4.70;;;;;;;10.71;94.78;100698.91;5016529;28;20213;-77
2023/05/04 00:30:36;;;;;;;4.80;4.40;;;;;;;10.70;94.69;100693.72;5033707;28;20203;-77
2023/05/04 00:33:02;;;;;;;4.53;4.13;;;;;;;10.68;94.57;100696.34;5035219;28;20205;-76
2023/05/04 00:35:30;;;;;;;5.00;4.60;;;;;;;10.71;93.91;100691.16;5020634;28;20195;-77
2023/05/04 00:37:56;;;;;;;4.87;4.47;;;;;;;10.75;93.47;100692.84;5034074;28;20275;-77
2023/05/04 00:40:21;;;;;;;4.60;4.20;;;;;;;10.73;93.53;100684.25;5019358;28;20211;-77
2023/05/04 00:42:46;;;;;;;4.53;4.13;;;;;;;10.74;93.46;100680.75;5033465;28;20211;-76
2023/05/04 00:45:13;;;;;;;4.73;4.20;;;;;;;10.79;92.79;100684.22;5007845;28;20706;-77
2023/05/04 00:47:39;;;;;;;4.67;4.27;;;;;;;10.77;93.02;100680.75;5037429;28;20179;-77
2023/05/04 00:50:06;;;;;;;4.80;4.40;;;;;;;10.79;92.72;100675.59;5036484;28;20184;-76
2023/05/04 00:52:33;;;;;;;5.23;4.73;;;;;;;10.76;93.28;100671.28;5036461;28;20291;-77
2023/05/04 00:55:00;;;;;;;4.87;4.30;;;;;;;10.75;93.67;100677.31;5038099;28;20180;-77
2023/05/04 00:57:25;;;;;;;4.33;4.00;;;;;;;10.74;93.36;100677.34;5016849;28;20195;-77
2023/05/04 00:59:52;;;;;;;4.80;4.40;;;;;;;10.75;92.85;100673.88;5033531;28;20769;-77
2023/05/04 01:02:18;;;;;;;6.60;4.53;;;;;;;10.74;92.77;100677.34;5034086;28;20215;-77
2023/05/04 01:04:44;;;;;;;7.10;4.77;;;;;;;10.74;92.46;100678.19;5038252;28;20187;-77
2023/05/04 01:07:16;;;;;;;4.67;4.27;;;;;;;10.73;92.51;100678.19;5033658;28;20180;-78
2023/05/04 01:09:45;;;;;;;4.77;4.40;;;;;;;10.70;92.58;100685.97;5034253;28;20239;-77
2023/05/04 01:12:17;;;;;;;4.50;4.20;;;;;;;10.68;92.73;100679.06;5014436;28;20208;-77
2023/05/04 01:14:43;;;;;;;4.73;4.33;;;;;;;10.66;92.45;100679.94;5014835;28;20793;-76
2023/05/04 01:17:09;;;;;;;4.73;4.23;;;;;;;10.66;92.70;100678.19;5034332;28;20184;-77
2023/05/04 01:19:35;;;;;;;5.10;4.70;;;;;;;10.62;92.90;100676.50;5025993;28;20282;-78
2023/05/04 01:22:01;;;;;;;4.67;4.27;;;;;;;10.65;92.79;100675.63;5010942;28;20748;-78
2023/05/04 01:24:27;;;;;;;4.87;4.47;;;;;;;10.60;93.14;100670.47;5031685;28;20184;-76
2023/05/04 01:26:59;;;;;;;5.93;5.33;;;;;;;10.57;93.46;100673.06;5027870;28;20183;-77
2023/05/04 01:29:30;;;;;;;5.63;5.10;;;;;;;10.52;94.12;100672.22;5014445;28;20211;-77
2023/05/04 01:31:56;;;;;;;4.77;4.33;;;;;;;10.47;94.37;100661.88;5030196;28;20238;-76
2023/05/04 01:34:22;;;;;;;5.20;4.77;;;;;;;10.42;94.41;100673.97;5032032;28;20191;-76
2023/05/04 01:36:47;;;;;;;4.83;4.40;;;;;;;10.34;94.84;100667.91;5026068;28;20180;-76
2023/05/04 01:39:13;;;;;;;4.00;3.57;;;;;;;10.26;95.66;100675.69;5029916;28;20246;-77
2023/05/04 01:41:40;;;;;;;4.67;4.30;;;;;;;10.14;97.38;100670.53;5010578;28;20191;-76
2023/05/04 01:44:05;;;;;;;6.00;5.50;;;;;;;10.07;99.75;100672.25;5012506;28;20195;-77
2023/05/04 01:46:31;;;;;;;5.47;4.97;;;;;;;10.05;100.00;100674.88;5032875;28;20191;-76
2023/05/04 01:48:56;;;;;;;6.00;5.60;;;;;;;10.04;100.00;100675.72;5006497;28;20215;-78
2023/05/04 01:51:22;;;;;;;5.23;4.70;;;;;;;10.01;100.00;100670.53;5027045;28;20184;-76
2023/05/04 01:53:47;;;;;;;5.40;4.90;;;;;;;10.00;100.00;100680.88;5024216;28;20203;-77
2023/05/04 01:56:13;;;;;;;5.70;4.97;;;;;;;9.99;100.00;100668.81;5031906;28;20199;-76
2023/05/04 01:58:38;;;;;;;6.40;5.80;;;;;;;9.97;100.00;100673.97;5031624;28;20884;-77
2023/05/04 02:01:03;;;;;;;6.03;5.53;;;;;;;9.90;100.00;100673.13;5031235;28;20194;-75
2023/05/04 02:03:30;;;;;;;6.27;5.73;;;;;;;9.89;100.00;100678.31;5012375;28;20223;-75
2023/05/04 02:05:55;;;;;;;5.30;4.80;;;;;;;9.85;100.00;100686.91;5031091;28;20191;-77
2023/05/04 02:08:20;;;;;;;6.70;5.73;;;;;;;9.84;100.00;100680.88;5028764;28;20230;-77
2023/05/04 02:10:46;;;;;;;6.33;5.73;;;;;;;9.81;100.00;100683.47;5018043;28;20190;-77
2023/05/04 02:13:12;;;;;;;6.23;5.63;;;;;;;9.81;100.00;100674.84;5029981;28;20258;-77
2023/05/04 02:15:37;;;;;;;7.07;5.37;;;;;;;9.76;100.00;100667.94;5029087;28;20183;-76
2023/05/04 02:18:03;;;;;;;6.03;5.53;;;;;;;9.75;100.00;100676.59;5029389;28;20184;-76
2023/05/04 02:20:28;;;;;;;6.37;5.80;;;;;;;9.69;100.00;100671.41;5030250;28;20643;-76
2023/05/04 02:22:53;;;;;;;6.17;5.57;;;;;;;9.64;100.00;100670.53;5030088;28;20297;-77
2023/05/04 02:25:18;;;;;;;5.77;5.30;;;;;;;9.61;100.00;100667.94;5024719;28;20179;-77
2023/05/04 02:27:44;;;;;;;6.10;5.60;;;;;;;9.55;100.00;100668.78;5008744;28;20210;-77
2023/05/04 02:30:10;;;;;;;6.33;5.63;;;;;;;9.51;100.00;100664.50;5026231;28;20183;-76
2023/05/04 02:32:35;;;;;;;7.67;5.27;;;;;;;9.44;100.00;100661.03;5029841;28;20552;-76
2023/05/04 02:35:01;;;;;;;6.07;5.57;;;;;;;9.42;100.00;100664.47;5025479;28;20195;-76
2023/05/04 02:37:26;;;;;;;6.10;5.60;;;;;;;9.38;100.00;100665.31;5029588;28;20536;-77
2023/05/04 02:39:52;;;;;;;6.20;5.60;;;;;;;9.35;100.00;100665.31;5027973;28;20167;-77
2023/05/04 02:42:17;;;;;;;6.17;5.63;;;;;;;9.32;100.00;100654.97;5027696;28;20222;-77
2023/05/04 02:44:43;;;;;;;6.77;6.17;;;;;;;9.32;100.00;100661.00;5028866;28;20766;-76
2023/05/04 02:47:08;;;;;;;6.13;5.53;;;;;;;9.33;100.00;100660.13;5030323;28;20188;-76
2023/05/04 02:49:34;;;;;;;6.93;6.33;;;;;;;9.37;100.00;100653.28;5027921;28;20628;-76
2023/05/04 02:52:00;;;;;;;6.47;5.90;;;;;;;9.41;100.00;100660.16;5030292;28;20235;-78
2023/05/04 02:54:25;;;;;;;6.60;6.00;;;;;;;9.46;100.00;100658.44;5029552;28;20235;-77
2023/05/04 02:56:50;;;;;;;8.77;6.40;;;;;;;9.48;100.00;100663.59;5029180;28;20879;-77
2023/05/04 02:59:16;;;;;;;6.83;6.13;;;;;;;9.54;100.00;100661.03;5026025;28;20231;-78
2023/05/04 03:01:41;;;;;;;9.03;6.33;;;;;;;9.52;100.00;100655.00;5029398;28;20222;-76
2023/05/04 03:04:06;;;;;;;7.00;6.27;;;;;;;9.54;100.00;100653.28;5028455;28;20275;-77
2023/05/04 03:06:32;;;;;;;7.37;6.57;;;;;;;9.53;100.00;100664.50;5028297;28;20190;-76
2023/05/04 03:08:57;;;;;;;6.83;6.23;;;;;;;9.55;100.00;100665.34;5031260;28;20272;-75
2023/05/04 03:11:22;;;;;;;6.60;6.10;;;;;;;9.56;100.00;100654.16;5009938;28;20788;-76
2023/05/04 03:13:48;;;;;;;7.10;6.40;;;;;;;9.55;100.00;100653.28;5028722;28;20937;-77
2023/05/04 03:16:13;;;;;;;6.80;6.20;;;;;;;9.52;100.00;100652.44;5029606;28;20199;-77
2023/05/04 03:18:38;;;;;;;7.17;6.50;;;;;;;9.51;100.00;100656.75;5003025;28;20179;-76
2023/05/04 03:21:04;;;;;;;7.07;6.40;;;;;;;9.49;100.00;100653.28;5029043;28;20728;-76
2023/05/04 03:23:29;;;;;;;7.20;6.60;;;;;;;9.46;100.00;100643.78;5028750;28;20670;-75
2023/05/04 03:25:55;;;;;;;7.33;6.73;;;;;;;9.43;100.00;100645.53;5023242;28;20181;-77
2023/05/04 03:28:20;;;;;;;6.93;6.23;;;;;;;9.38;100.00;100642.94;5023594;28;20557;-77
2023/05/04 03:30:46;;;;;;;7.30;6.60;;;;;;;9.36;100.00;100638.63;5022410;28;20215;-77
2023/05/04 03:33:12;;;;;;;7.53;6.77;;;;;;;9.32;100.00;100634.31;5023189;28;20211;-77
2023/05/04 03:35:37;;;;;;;7.13;6.43;;;;;;;9.33;100.00;100636.03;5024117;28;20644;-77
2023/05/04 03:38:02;;;;;;;7.47;6.87;;;;;;;9.29;100.00;100625.69;5015106;28;20184;-76
2023/05/04 03:40:28;;;;;;;7.63;6.93;;;;;;;9.27;100.00;100623.97;5025806;28;20194;-77
2023/05/04 03:42:53;;;;;;;7.47;6.87;;;;;;;9.25;100.00;100620.53;5028846;28;20234;-76
2023/05/04 03:45:18;;;;;;;7.27;6.67;;;;;;;9.22;100.00;100616.22;5027220;28;20176;-77
2023/05/04 03:47:44;;;;;;;8.00;7.30;;;;;;;9.18;100.00;100614.50;5026516;28;20200;-77
2023/05/04 03:50:10;;;;;;;8.40;7.70;;;;;;;9.15;100.00;100614.47;5028632;28;20571;-76
2023/05/04 03:52:35;;;;;;;7.83;7.13;;;;;;;9.13;100.00;100608.44;5028334;28;20235;-78
2023/05/04 03:55:01;;;;;;;7.93;7.23;;;;;;;9.11;100.00;100600.72;5005368;28;21893;-76
2023/05/04 03:57:26;;;;;;;8.03;7.33;;;;;;;9.11;100.00;100612.75;5029712;28;20192;-76
2023/05/04 03:59:51;;;;;;;7.47;6.87;;;;;;;9.05;100.00;100603.25;5028033;28;20313;-77
2023/05/04 04:02:17;;;;;;;7.83;7.23;;;;;;;9.05;100.00;100610.16;5028594;28;20207;-76
2023/05/04 04:04:42;;;;;;;7.90;7.30;;;;;;;9.07;100.00;100609.28;5030798;28;20210;-77
2023/05/04 04:07:07;;;;;;;7.40;6.57;;;;;;;9.05;100.00;100602.41;5030995;28;20671;-77
2023/05/04 04:09:33;;;;;;;7.97;7.27;;;;;;;9.07;100.00;100608.44;5031642;28;20207;-76
2023/05/04 04:11:58;;;;;;;7.90;7.13;;;;;;;9.06;100.00;100614.47;5034001;28;20224;-77
2023/05/04 04:14:23;;;;;;;6.30;5.80;;;;;;;9.03;100.00;100614.47;5032855;28;20562;-76
2023/05/04 04:16:49;;;;;;;7.80;6.40;;;;;;;9.00;100.00;100616.16;5032436;28;20215;-78
2023/05/04 04:19:14;;;;;;;6.57;5.97;;;;;;;9.03;100.00;100622.19;5030900;28;20206;-76
2023/05/04 04:21:39;;;;;;;8.10;7.40;;;;;;;9.12;100.00;100628.25;5011068;28;20196;-76
2023/05/04 04:24:05;;;;;;;7.33;6.70;;;;;;;9.18;100.00;100617.06;5032506;28;20673;-77
2023/05/04 04:26:30;;;;;;;9.13;7.60;;;;;;;9.29;100.00;100615.38;5013129;28;20191;-77
2023/05/04 04:28:55;;;;;;;8.07;7.37;;;;;;;9.40;100.00;100615.38;5033603;28;20208;-77
2023/05/04 04:31:21;;;;;;;7.93;6.83;;;;;;;9.48;100.00;100612.81;5011842;28;20245;-77
2023/05/04 04:33:48;;;;;;;6.90;6.40;;;;;;;9.58;100.00;100613.69;5011822;28;20307;-78
2023/05/04 04:36:17;;;;;;;7.37;6.77;;;;;;;9.64;100.00;100610.25;5033610;28;20238;-77
2023/05/04 04:38:42;;;;;;;7.70;7.10;;;;;;;9.71;100.00;100617.13;5025379;28;20237;-76
2023/05/04 04:41:08;;;;;;;8.13;7.47;;;;;;;9.80;100.00;100613.66;5014507;28;20188;-77
2023/05/04 04:43:34;;;;;;;6.73;6.23;;;;;;;9.89;100.00;100621.44;5031594;28;20207;-77
2023/05/04 04:46:00;;;;;;;9.50;8.60;;;;;;;10.00;100.00;100624.88;5031665;28;20928;-76
2023/05/04 04:48:25;;;;;;;8.40;7.60;;;;;;;10.09;100.00;100620.53;5029457;28;20203;-76
2023/05/04 04:50:51;;;;;;;7.90;7.30;;;;;;;10.16;100.00;100628.28;5030088;28;20895;-76
2023/05/04 04:53:17;;;;;;;7.23;6.63;;;;;;;10.25;100.00;100624.81;5031868;28;20294;-77
2023/05/04 04:55:42;;;;;;;8.53;7.77;;;;;;;10.31;100.00;100622.22;5032676;28;20250;-76
2023/05/04 04:58:08;;;;;;;10.33;8.40;;;;;;;10.32;100.00;100623.94;5033579;28;20179;-77
2023/05/04 05:00:34;;;;;;;7.60;6.90;;;;;;;10.42;100.00;100616.19;5030215;28;20828;-75
2023/05/04 05:03:00;;;;;;;8.27;7.10;;;;;;;10.49;100.00;100623.91;5029842;28;20282;-76
2023/05/04 05:05:25;;;;;;;8.67;7.77;;;;;;;10.59;100.00;100627.34;5031679;28;20236;-77
2023/05/04 05:07:51;;;;;;;8.77;7.97;;;;;;;10.65;100.00;100632.50;5033372;28;20176;-76
2023/05/04 05:10:17;;;;;;;8.57;7.60;;;;;;;10.74;99.58;100626.41;5008656;28;20212;-77
2023/05/04 05:12:43;;;;;;;8.37;7.50;;;;;;;10.81;99.47;100630.69;5027334;28;20600;-77
2023/05/04 05:15:08;;;;;;;8.03;7.33;;;;;;;10.93;99.38;100637.56;5032128;28;20541;-77
2023/05/04 05:17:36;;;;;;;8.23;7.53;;;;;;;11.37;98.34;100637.31;5028503;28;20183;-77
2023/05/04 05:20:02;;;;;;;7.47;6.77;;;;;;;11.89;96.48;100633.47;5023307;28;20281;-77
2023/05/04 05:22:27;;;;;;;7.80;7.10;;;;;;;12.44;93.83;100631.19;5030131;28;20738;-78
2023/05/04 05:24:53;;;;;;;6.87;6.30;;;;;;;12.93;91.82;100622.81;5030506;28;20180;-77
2023/05/04 05:27:18;;;;;;;7.70;6.40;;;;;;;13.63;89.63;100619.22;5030768;28;20714;-78
2023/05/04 05:29:43;;;;;;;7.00;6.40;;;;;;;14.60;85.98;100619.19;5029236;28;20222;-75
2023/05/04 05:32:08;;;;;;;6.67;6.13;;;;;;;15.59;82.76;100617.91;5026020;28;20211;-76
2023/05/04 05:34:37;;;;;;;8.57;6.67;;;;;;;16.29;78.89;100617.88;5023834;28;20244;-77
2023/05/04 05:37:03;;;;;;;7.23;6.30;;;;;;;16.91;75.83;100625.69;5025977;28;20218;-75
2023/05/04 05:39:28;;;;;;;7.87;6.23;;;;;;;17.52;74.14;100619.50;5031199;28;20258;-77
2023/05/04 05:41:59;;;;;;;7.20;6.50;;;;;;;17.86;72.74;100623.59;5027560;28;20245;-76
2023/05/04 05:44:24;;;;;;;6.50;5.90;;;;;;;18.28;71.53;100620.41;5028138;28;20566;-78
2023/05/04 05:46:50;;;;;;;7.53;6.83;;;;;;;18.11;70.42;100620.16;4997176;28;20190;-77
2023/05/04 05:49:15;;;;;;;6.70;6.00;;;;;;;18.59;70.45;100626.31;5013114;28;20212;-77
2023/05/04 05:51:41;;;;;;;6.50;6.00;;;;;;;18.96;69.35;100611.00;5017431;28;20195;-79
2023/05/04 05:54:06;;;;;;;7.57;6.60;;;;;;;18.24;69.38;100617.97;5033106;28;20193;-78
2023/05/04 05:56:31;;;;;;;6.47;5.87;;;;;;;18.38;69.73;100618.31;5017302;28;20246;-77
2023/05/04 05:58:57;;;;;;;6.47;5.90;;;;;;;18.91;69.19;100608.50;5021503;28;20207;-76
2023/05/04 06:01:23;;;;;;;6.73;6.03;;;;;;;19.06;68.30;100616.75;5029836;28;20182;-78
2023/05/04 06:03:48;;;;;;;7.50;6.80;;;;;;;19.24;67.85;100616.00;5035175;28;20203;-77
2023/05/04 06:06:14;;;;;;;6.60;5.93;;;;;;;19.41;67.83;100615.31;5032001;28;20194;-77
2023/05/04 06:08:40;;;;;;;6.50;5.83;;;;;;;19.96;67.10;100616.56;5031091;28;20320;-77
2023/05/04 06:11:05;;;;;;;6.90;6.20;;;;;;;20.30;65.96;100615.09;5031638;28;20288;-77
2023/05/04 06:13:31;;;;;;;7.90;7.10;;;;;;;20.45;64.97;100610.91;5032769;28;20717;-76
2023/05/04 06:15:56;;;;;;;8.57;6.30;;;;;;;20.71;64.77;100608.91;5014681;28;20179;-76
2023/05/04 06:18:21;;;;;;;6.23;5.53;;;;;;;21.26;64.05;100609.84;5031994;28;20254;-77
2023/05/04 06:20:47;;;;;;;7.17;6.57;;;;;;;21.50;63.35;100605.16;5012299;28;20717;-76
2023/05/04 06:23:13;;;;;;;6.47;5.97;;;;;;;21.54;63.19;100597.94;5027310;28;20306;-77
2023/05/04 06:25:39;;;;;;;6.40;5.80;;;;;;;21.86;63.14;100598.97;5030594;28;20195;-76
2023/05/04 06:28:05;;;;;;;6.80;6.30;;;;;;;22.03;62.72;100606.03;5031273;28;20187;-78
2023/05/04 06:30:30;;;;;;;6.63;6.03;;;;;;;22.02;62.56;100598.19;5031500;28;20187;-77
2023/05/04 06:32:55;;;;;;;5.93;5.53;;;;;;;22.11;62.65;100603.00;5027704;28;20199;-77
2023/05/04 06:35:21;;;;;;;6.60;6.00;;;;;;;22.55;61.97;100596.28;5007577;28;20179;-76
2023/05/04 06:37:46;;;;;;;6.87;6.27;;;;;;;22.68;61.17;100594.72;5014689;28;20237;-78
2023/05/04 06:40:12;;;;;;;7.00;6.40;;;;;;;22.74;61.43;100601.44;5037138;28;20187;-76
2023/05/04 06:42:38;;;;;;;7.30;6.60;;;;;;;22.35;62.03;100600.84;5016077;28;20210;-75
2023/05/04 06:45:04;;;;;;;8.97;7.17;;;;;;;22.28;62.29;100585.44;5011332;28;20214;-77
2023/05/04 06:47:29;;;;;;;9.77;6.53;;;;;;;22.25;62.45;100591.69;5029749;28;20262;-76
2023/05/04 06:49:55;;;;;;;7.90;7.10;;;;;;;22.07;62.94;100583.88;5028658;28;20203;-76
2023/05/04 06:52:20;;;;;;;8.10;7.30;;;;;;;21.72;62.89;100585.66;5028088;28;20250;-76
2023/05/04 06:54:46;;;;;;;8.20;7.47;;;;;;;21.35;63.92;100585.69;5027747;28;20187;-76
2023/05/04 06:57:11;;;;;;;8.13;7.27;;;;;;;21.44;64.12;100585.25;5028357;28;20219;-78
2023/05/04 06:59:36;;;;;;;7.40;6.80;;;;;;;21.28;64.59;100590.41;5009381;28;20634;-77
2023/05/04 07:02:02;;;;;;;7.73;7.07;;;;;;;21.41;64.50;100581.91;5024145;28;20713;-77
2023/05/04 07:04:27;;;;;;;7.73;7.03;;;;;;;21.10;64.74;100592.16;5008662;28;20187;-78
2023/05/04 07:06:52;;;;;;;8.83;7.70;;;;;;;21.16;65.09;100583.13;5026974;28;20191;-77
2023/05/04 07:09:18;;;;;;;9.43;8.43;;;;;;;20.93;65.11;100593.00;5028147;28;20218;-77
2023/05/04 07:11:44;;;;;;;7.93;7.13;;;;;;;20.48;66.42;100589.75;5008890;28;20189;-77
2023/05/04 07:14:10;;;;;;;8.53;7.73;;;;;;;20.08;67.39;100589.78;5029158;28;20273;-78
2023/05/04 07:16:35;;;;;;;8.60;7.60;;;;;;;20.08;67.88;100586.31;5027460;28;20733;-76
2023/05/04 07:19:01;;;;;;;9.60;7.77;;;;;;;20.34;67.47;100590.41;5029880;28;20187;-77
2023/05/04 07:21:27;;;;;;;8.97;7.90;;;;;;;20.46;67.39;100585.50;5028354;28;20188;-77
2023/05/04 07:23:52;;;;;;;11.57;7.97;;;;;;;20.00;68.38;100576.13;5029846;28;20652;-75
2023/05/04 07:26:17;;;;;;;11.30;7.77;;;;;;;19.88;69.00;100580.13;5028056;28;20206;-76
2023/05/04 07:28:43;;;;;;;8.73;7.77;;;;;;;20.16;68.56;100575.44;5027242;28;20223;-76
2023/05/04 07:31:11;;;;;;;8.10;7.30;;;;;;;20.18;68.63;100584.13;5023721;28;20322;-76
2023/05/04 07:33:37;;;;;;;8.57;7.63;;;;;;;19.91;69.29;100580.00;5028905;28;20221;-76
2023/05/04 07:36:02;;;;;;;10.17;7.90;;;;;;;19.83;68.98;100589.09;5001537;28;20282;-76
2023/05/04 07:38:28;;;;;;;8.30;7.60;;;;;;;19.69;69.69;100584.44;5025631;28;20191;-75
2023/05/04 07:40:54;;;;;;;24.87;9.83;;;;;;;19.55;70.25;100572.75;5035175;28;20199;-76
2023/05/04 07:43:20;;;;;;;19.07;9.90;;;;;;;19.60;70.61;100577.78;5017600;28;20912;-77
2023/05/04 07:45:45;;;;;;;9.90;8.10;;;;;;;19.40;70.74;100576.88;5032071;28;20272;-77
2023/05/04 07:48:10;;;;;;;8.47;7.77;;;;;;;19.40;70.86;100576.88;5028236;28;20592;-76
2023/05/04 07:50:36;;;;;;;10.43;8.40;;;;;;;19.02;72.37;100574.00;5029406;28;20218;-76
2023/05/04 07:53:02;;;;;;;8.70;7.90;;;;;;;18.96;71.46;100579.53;5027013;28;20264;-76
2023/05/04 07:55:28;;;;;;;9.17;8.27;;;;;;;18.84;71.53;100563.31;5030676;28;20220;-76
2023/05/04 07:57:53;;;;;;;9.27;8.27;;;;;;;18.83;72.08;100563.38;5012418;28;20209;-77
2023/05/04 08:00:20;;;;;;;8.43;7.63;;;;;;;18.80;72.32;100571.34;5031975;28;20723;-77
2023/05/04 08:02:45;;;;;;;8.53;7.60;;;;;;;18.78;72.21;100560.94;5025712;28;20887;-76
2023/05/04 08:05:10;;;;;;;8.77;7.90;;;;;;;18.52;72.53;100567.16;5024834;28;20198;-78
2023/05/04 08:07:36;;;;;;;8.73;7.80;;;;;;;18.67;72.42;100558.72;5010955;28;20211;-77
2023/05/04 08:10:02;;;;;;;9.17;7.43;;;;;;;18.58;72.73;100564.31;5029654;28;20217;-77
2023/05/04 08:12:28;;;;;;;8.40;7.60;;;;;;;18.58;72.64;100554.69;5031443;28;20214;-77
2023/05/04 08:14:53;;;;;;;7.53;6.93;;;;;;;18.62;72.93;100550.16;5022440;28;20278;-76
2023/05/04 08:17:18;;;;;;;14.17;8.80;;;;;;;18.77;72.91;100551.38;5024367;28;20182;-76
2023/05/04 08:19:44;;;;;;;8.57;7.67;;;;;;;18.70;72.25;100547.25;5033444;28;20182;-76
2023/05/04 08:22:09;;;;;;;8.20;7.20;;;;;;;18.69;72.42;100548.16;5012328;28;20338;-77
2023/05/04 08:24:35;;;;;;;7.80;7.03;;;;;;;18.60;72.16;100546.78;5032013;28;20191;-77
2023/05/04 08:27:01;;;;;;;7.77;6.97;;;;;;;18.46;72.44;100543.81;5013296;28;20561;-75
2023/05/04 08:29:27;;;;;;;9.23;6.73;;;;;;;18.39;72.79;100546.66;5029249;28;20206;-76
2023/05/04 08:31:54;;;;;;;7.30;6.60;;;;;;;18.51;73.26;100541.88;5028196;28;20220;-77
2023/05/04 08:34:20;;;;;;;7.37;6.77;;;;;;;18.43;73.11;100545.66;5031406;28;20215;-76
2023/05/04 08:36:45;;;;;;;7.27;6.23;;;;;;;18.43;73.08;100535.16;5028900;28;20637;-77
2023/05/04 08:39:11;;;;;;;8.83;6.80;;;;;;;18.61;72.89;100540.59;5028018;28;20290;-77
2023/05/04 08:41:40;;;;;;;7.17;6.60;;;;;;;18.55;72.94;100546.09;5030954;28;20190;-76
2023/05/04 08:44:08;;;;;;;6.53;5.93;;;;;;;18.69;72.87;100535.94;5030294;28;20253;-75
2023/05/04 08:46:33;;;;;;;7.03;5.73;;;;;;;18.90;72.24;100538.63;5028762;28;20270;-76
2023/05/04 08:48:59;;;;;;;6.80;6.10;;;;;;;18.94;72.46;100549.84;5027174;28;20844;-75
2023/05/04 08:51:26;;;;;;;9.13;5.83;;;;;;;19.08;72.50;100546.69;5029728;28;20738;-77
2023/05/04 08:53:52;;;;;;;7.00;5.77;;;;;;;19.29;71.96;100544.94;5010818;28;20218;-75
2023/05/04 08:56:19;;;;;;;6.33;5.73;;;;;;;19.42;71.59;100543.56;5029748;28;20184;-77
2023/05/04 08:58:51;;;;;;;6.27;5.73;;;;;;;19.41;71.28;100547.09;5023599;28;20820;-77
2023/05/04 09:01:18;;;;;;;8.57;6.20;;;;;;;19.36;71.45;100535.91;5010809;28;20305;-75
2023/05/04 09:03:45;;;;;;;6.73;5.60;;;;;;;19.52;70.75;100543.16;5025911;28;20262;-76
2023/05/04 09:06:11;;;;;;;6.07;4.47;;;;;;;19.77;70.39;100540.34;5029143;28;20205;-77
2023/05/04 09:08:37;;;;;;;22.03;7.47;;;;;;;19.64;69.42;100540.88;5028848;28;20566;-77
2023/05/04 09:11:02;;;;;;;16.20;6.10;;;;;;;19.69;70.11;100531.91;5028145;28;20275;-77
2023/05/04 09:13:29;;;;;;;14.37;6.77;;;;;;;19.74;70.08;100532.59;5028167;28;20266;-76
2023/05/04 09:15:55;;;;;;;15.47;7.13;;;;;;;19.77;69.92;100529.81;5031260;28;20183;-76
2023/05/04 09:18:22;;;;;;;15.57;6.63;;;;;;;19.61;69.51;100525.25;5027430;28;20722;-77
2023/05/04 09:20:48;;;;;;;11.67;6.70;;;;;;;19.71;69.63;100528.31;5030740;28;20294;-76
2023/05/04 09:23:15;;;;;;;28.83;9.70;;;;;;;19.71;69.56;100520.44;5031662;28;20245;-76
2023/05/04 09:25:49;;;;;;;12.80;6.57;;;;;;;19.78;69.66;100524.50;5026716;28;20188;-76
2023/05/04 09:28:16;;;;;;;16.90;6.17;;;;;;;19.85;69.30;100524.25;5030049;28;20198;-75
2023/05/04 09:30:41;;;;;;;5.67;4.50;;;;;;;20.12;68.93;100524.78;5029134;28;20254;-77
2023/05/04 09:33:07;;;;;;;13.27;5.90;;;;;;;20.24;69.18;100516.38;5025119;28;20241;-76
2023/05/04 09:35:33;;;;;;;20.43;7.50;;;;;;;20.19;68.55;100522.78;5009141;28;20184;-76
2023/05/04 09:37:58;;;;;;;7.13;5.60;;;;;;;20.25;68.29;100512.84;5028530;28;20192;-76
2023/05/04 09:40:39;;;;;;;11.70;6.00;;;;;;;20.23;67.78;100516.44;5016992;28;20197;-76
2023/05/04 09:43:05;;;;;;;5.47;4.87;;;;;;;20.19;68.32;100515.72;5021722;28;20570;-77
2023/05/04 09:45:40;;;;;;;6.43;5.17;;;;;;;20.45;68.30;100500.50;5026631;28;20253;-76
2023/05/04 09:48:27;;;;;;;10.17;5.73;;;;;;;20.48;68.69;100507.44;5026601;28;20270;-77
2023/05/04 09:50:57;;;;;;;18.70;7.23;;;;;;;20.48;68.44;100510.06;5021635;28;20188;-75
2023/05/04 09:53:26;;;;;;;8.40;5.33;;;;;;;20.69;68.64;100511.66;5027825;28;20225;-76
2023/05/04 09:56:16;;;;;;;11.80;5.97;;;;;;;20.63;67.28;100511.09;5023644;28;20200;-77
2023/05/04 09:58:44;;;;;;;6.00;5.50;;;;;;;20.46;67.52;100504.84;5022037;28;20779;-77
2023/05/04 10:01:10;;;;;;;5.53;5.03;;;;;;;20.60;67.49;100505.97;5019765;28;20195;-77
2023/05/04 10:03:36;;;;;;;4.43;4.00;;;;;;;20.78;67.58;100502.50;5024312;28;20204;-76
2023/05/04 10:06:04;;;;;;;5.70;4.50;;;;;;;20.94;67.68;100492.09;5028057;28;20191;-75
2023/05/04 10:08:30;;;;;;;5.53;4.73;;;;;;;20.95;67.72;100487.69;5026353;28;20230;-77
2023/05/04 10:10:56;;;;;;;5.10;4.70;;;;;;;20.98;67.02;100484.91;5008509;28;20669;-76
2023/05/04 10:13:22;;;;;;;4.70;4.40;;;;;;;20.97;66.60;100473.50;5028223;28;20297;-77
2023/05/04 10:16:11;;;;;;;4.03;3.73;;;;;;;21.15;66.46;100482.28;5008495;28;21715;-77
2023/05/04 10:18:45;;;;;;;4.97;4.57;;;;;;;21.10;66.36;100473.75;5016652;28;20180;-76
2023/05/04 10:21:30;;;;;;;5.23;4.77;;;;;;;21.28;66.51;100466.69;5025753;28;20713;-76
2023/05/04 10:24:04;;;;;;;5.17;4.73;;;;;;;21.32;66.41;100460.38;5025989;28;20195;-76
2023/05/04 10:26:49;;;;;;;8.50;5.60;;;;;;;21.38;66.65;100467.09;5025727;28;20195;-76
2023/05/04 10:29:22;;;;;;;5.33;4.83;;;;;;;21.39;65.74;100452.16;5024942;28;20226;-76
2023/05/04 10:31:48;;;;;;;4.97;4.47;;;;;;;21.54;65.63;100461.03;5024779;28;20191;-77
2023/05/04 10:34:32;;;;;;;4.50;4.20;;;;;;;21.53;65.00;100459.31;5011129;28;20272;-76
2023/05/04 10:36:59;;;;;;;4.30;3.90;;;;;;;21.78;65.06;100456.28;5026417;28;20278;-76
2023/05/04 10:39:33;;;;;;;4.67;4.20;;;;;;;21.86;64.35;100448.81;5020136;28;20186;-77
2023/05/04 10:42:03;;;;;;;4.50;4.10;;;;;;;21.92;64.39;100448.50;5020354;28;20238;-77
2023/05/04 10:44:30;;;;;;;5.27;4.20;;;;;;;22.01;64.99;100443.63;5024066;28;20227;-76
2023/05/04 10:47:06;;;;;;;3.93;3.63;;;;;;;21.97;64.88;100448.22;5021477;28;20183;-76
2023/05/04 10:49:33;;;;;;;4.37;4.00;;;;;;;21.98;65.48;100441.19;5022773;28;20206;-76
2023/05/04 10:52:15;;;;;;;5.57;3.90;;;;;;;22.16;64.79;100442.81;5026200;28;20580;-77
2023/05/04 10:54:41;;;;;;;5.10;4.57;;;;;;;22.16;63.78;100428.78;5023638;28;20187;-76
2023/05/04 10:57:16;;;;;;;4.70;4.17;;;;;;;22.15;63.69;100421.81;5022154;28;20191;-77
2023/05/04 10:59:42;;;;;;;6.23;3.97;;;;;;;22.26;63.45;100414.16;5022692;28;20188;-76
2023/05/04 11:02:08;;;;;;;4.37;3.97;;;;;;;22.35;63.90;100408.38;5004234;28;20206;-77
2023/05/04 11:04:34;;;;;;;4.10;3.80;;;;;;;22.35;64.13;100413.66;5025612;28;21059;-77
2023/05/04 11:07:05;;;;;;;4.37;4.07;;;;;;;22.22;63.96;100405.56;5023673;28;20191;-76
2023/05/04 11:09:38;;;;;;;5.50;5.00;;;;;;;22.31;63.41;100406.00;5022157;28;20253;-76
2023/05/04 11:12:05;;;;;;;4.10;3.67;;;;;;;22.44;63.33;100404.41;5017173;28;20243;-76
2023/05/04 11:14:30;;;;;;;3.90;3.60;;;;;;;22.44;62.84;100407.03;5022479;28;20199;-76
2023/05/04 11:17:05;;;;;;;3.53;3.30;;;;;;;22.46;62.13;100404.31;5028800;28;20936;-76
2023/05/04 11:19:31;;;;;;;4.10;3.80;;;;;;;22.63;62.44;100408.59;5026357;28;20190;-76
2023/05/04 11:21:57;;;;;;;4.00;3.53;;;;;;;22.66;62.21;100408.44;5026946;28;20225;-77